createdAt,value
2019-04-21T00:00:52.379Z,45.30
2019-04-21T00:03:26.055Z,44.80
2019-04-21T00:06:08.929Z,45.10
2019-04-21T00:08:44.158Z,44.40
2019-04-21T00:11:18.431Z,44.20
2019-04-21T00:13:39.673Z,44.30
2019-04-21T00:16:00.293Z,44.50
2019-04-21T00:18:50.629Z,44.40
2019-04-21T00:21:25.591Z,43.90
2019-04-21T00:24:00.331Z,43.80
2019-04-21T00:26:42.197Z,43.80
2019-04-21T00:29:22.565Z,43.70
2019-04-21T00:31:39.353Z,43.30
2019-04-21T00:33:55.464Z,43.60
2019-04-21T00:36:39.653Z,43.70
2019-04-21T00:39:34.457Z,43.60
2019-04-21T00:41:54.686Z,43.80
2019-04-21T00:44:14.273Z,43.70
2019-04-21T00:46:51.724Z,43.80
2019-04-21T00:49:24.322Z,43.80
2019-04-21T00:52:14.577Z,43.80
2019-04-21T00:54:58.609Z,43.70
2019-04-21T00:57:26.547Z,44.00
2019-04-21T00:59:55.663Z,44.50
2019-04-21T01:02:27.996Z,44.50
2019-04-21T01:05:01.716Z,44.40
2019-04-21T01:07:26.767Z,44.40
2019-04-21T01:09:48.509Z,44.20
2019-04-21T01:12:34.968Z,44.20
2019-04-21T01:15:04.744Z,44.30
2019-04-21T01:17:35.715Z,44.30
2019-04-21T01:19:59.964Z,44.40
2019-04-21T01:22:15.348Z,44.50
2019-04-21T01:24:49.119Z,44.80
2019-04-21T01:27:39.774Z,44.60
2019-04-21T01:30:14.332Z,45.10
2019-04-21T01:32:46.242Z,45.60
2019-04-21T01:35:15.070Z,46.00
2019-04-21T01:37:49.570Z,45.50
2019-04-21T01:40:23.135Z,45.60
2019-04-21T01:42:48.083Z,45.90
2019-04-21T01:45:27.971Z,46.60
2019-04-21T01:48:01.202Z,47.90
2019-04-21T01:50:30.062Z,47.20
2019-04-21T01:53:10.924Z,47.20
2019-04-21T01:55:52.534Z,47.10
2019-04-21T01:58:15.996Z,47.00
2019-04-21T02:00:57.355Z,46.90
2019-04-21T02:03:46.680Z,46.50
2019-04-21T02:06:14.948Z,46.50
2019-04-21T02:08:34.694Z,46.50
2019-04-21T02:11:11.201Z,46.10
2019-04-21T02:13:48.886Z,46.50
2019-04-21T02:16:12.427Z,46.40
2019-04-21T02:18:46.435Z,46.60
2019-04-21T02:21:04.381Z,46.80
2019-04-21T02:23:54.351Z,46.70
2019-04-21T02:26:22.862Z,46.80
2019-04-21T02:28:58.597Z,46.50
2019-04-21T02:31:40.456Z,46.40
2019-04-21T02:34:17.000Z,46.70
2019-04-21T02:39:15.113Z,48.30
2019-04-21T02:41:54.618Z,47.70
2019-04-21T02:46:42.545Z,48.50
2019-04-21T02:49:22.446Z,49.60
2019-04-21T02:54:45.729Z,50.10
2019-04-21T02:57:04.664Z,49.90
2019-04-21T02:59:23.352Z,49.80
2019-04-21T03:02:25.792Z,50.10
2019-04-21T03:05:02.413Z,50.80
2019-04-21T03:07:32.227Z,51.00
2019-04-21T03:10:04.817Z,50.90
2019-04-21T03:12:32.014Z,51.60
2019-04-21T03:20:08.853Z,51.60
2019-04-21T03:22:42.314Z,50.80
2019-04-21T03:25:25.108Z,50.60
2019-04-21T03:27:57.370Z,51.10
2019-04-21T03:37:54.410Z,50.40
2019-04-21T03:40:30.269Z,50.10
2019-04-21T03:42:59.781Z,50.80
2019-04-21T03:45:32.137Z,49.80
2019-04-21T03:48:05.262Z,49.60
2019-04-21T03:50:33.517Z,49.90
2019-04-21T03:53:03.469Z,50.00
2019-04-21T04:01:00.653Z,50.60
2019-04-21T04:06:40.274Z,51.60
2019-04-21T04:11:58.052Z,51.70
2019-04-21T04:19:26.394Z,52.50
2019-04-21T04:21:57.094Z,52.90
2019-04-21T04:26:59.511Z,53.60
2019-04-21T04:32:18.113Z,54.00
2019-04-21T04:34:49.924Z,54.50
2019-04-21T04:37:15.511Z,54.60
2019-04-21T04:45:05.854Z,55.10
2019-04-21T04:47:43.074Z,55.20
2019-04-21T04:50:22.565Z,55.50
2019-04-21T04:55:08.571Z,56.20
2019-04-21T04:57:49.186Z,56.50
2019-04-21T05:02:42.377Z,56.10
2019-04-21T05:10:18.731Z,56.40
2019-04-21T05:12:45.784Z,56.40
2019-04-21T05:15:12.653Z,56.40
2019-04-21T05:18:10.846Z,57.20
2019-04-21T05:20:17.061Z,57.00
2019-04-21T05:22:47.413Z,56.90
2019-04-21T05:25:13.186Z,57.60
2019-04-21T05:27:45.142Z,57.60
2019-04-21T05:30:28.492Z,57.50
2019-04-21T05:33:01.410Z,58.00
2019-04-21T05:35:45.173Z,57.80
2019-04-21T05:38:16.780Z,58.20
2019-04-21T05:40:44.116Z,58.50
2019-04-21T05:43:28.554Z,58.30
2019-04-21T05:46:02.562Z,57.70
2019-04-21T05:48:36.420Z,58.20
2019-04-21T05:50:58.933Z,58.00
2019-04-21T05:53:48.048Z,58.20
2019-04-21T05:56:14.197Z,58.40
2019-04-21T05:58:39.166Z,57.80
2019-04-21T06:01:23.895Z,58.50
2019-04-21T06:06:22.069Z,58.50
2019-04-21T06:08:44.970Z,57.70
2019-04-21T06:11:19.191Z,57.20
2019-04-21T06:13:54.987Z,57.50
2019-04-21T06:16:43.905Z,56.70
2019-04-21T06:21:28.163Z,56.00
2019-04-21T06:23:57.319Z,55.60
2019-04-21T06:28:56.615Z,54.60
2019-04-21T06:34:04.723Z,54.30
2019-04-21T06:41:58.531Z,53.60
2019-04-21T06:46:47.020Z,53.90
2019-04-21T06:49:13.162Z,54.80
2019-04-21T06:51:49.770Z,53.70
2019-04-21T06:54:22.007Z,53.80
2019-04-21T06:56:51.741Z,53.50
2019-04-21T06:59:29.420Z,53.30
2019-04-21T07:04:31.253Z,51.00
2019-04-21T07:06:59.279Z,50.50
2019-04-21T07:09:31.180Z,50.20
2019-04-21T07:12:00.013Z,49.40
2019-04-21T07:14:32.021Z,49.70
2019-04-21T07:17:15.922Z,49.10
2019-04-21T07:19:46.266Z,47.80
2019-04-21T07:22:12.636Z,46.30
2019-04-21T07:24:43.344Z,46.20
2019-04-21T07:27:15.576Z,45.10
2019-04-21T07:29:47.522Z,45.60
2019-04-21T07:32:14.883Z,44.80
2019-04-21T07:34:52.263Z,44.70
2019-04-21T07:37:23.970Z,43.80
2019-04-21T07:39:53.130Z,44.20
2019-04-21T07:42:20.826Z,43.20
2019-04-21T07:44:53.557Z,42.50
2019-04-21T07:47:32.752Z,43.10
2019-04-21T07:50:08.847Z,43.50
2019-04-21T07:53:05.153Z,44.80
2019-04-21T07:58:02.577Z,44.40
2019-04-21T08:00:36.327Z,44.70
2019-04-21T08:03:12.842Z,44.40
2019-04-21T08:05:58.633Z,42.60
2019-04-21T08:08:01.566Z,43.80
2019-04-21T08:10:47.517Z,43.90
2019-04-21T08:13:25.175Z,43.00
2019-04-21T08:16:07.344Z,43.70
2019-04-21T08:18:20.424Z,44.40
2019-04-21T08:20:47.984Z,44.80
2019-04-21T08:23:25.614Z,44.70
2019-04-21T08:26:01.114Z,44.60
2019-04-21T08:28:27.627Z,45.10
2019-04-21T08:31:04.838Z,43.90
2019-04-21T08:33:47.019Z,43.90
2019-04-21T08:38:34.479Z,43.40
2019-04-21T08:43:40.672Z,43.30
2019-04-21T08:46:09.695Z,42.90
2019-04-21T08:48:43.941Z,41.70
2019-04-21T08:51:21.035Z,41.40
2019-04-21T08:53:49.027Z,40.90
2019-04-21T08:56:37.208Z,40.10
2019-04-21T08:59:13.848Z,38.60
2019-04-21T09:01:47.405Z,37.90
2019-04-21T09:04:21.694Z,38.20
2019-04-21T09:06:59.164Z,37.60
2019-04-21T09:09:22.411Z,37.10
2019-04-21T09:11:58.010Z,35.20
2019-04-21T09:14:30.915Z,35.10
2019-04-21T09:16:56.554Z,35.10
2019-04-21T09:19:44.462Z,35.10
2019-04-21T09:22:02.218Z,35.20
2019-04-21T09:24:33.365Z,36.20
2019-04-21T09:27:07.116Z,37.60
2019-04-21T09:29:28.432Z,36.40
2019-04-21T09:31:55.766Z,37.70
2019-04-21T09:34:30.564Z,35.30
2019-04-21T09:37:12.728Z,35.40
2019-04-21T09:39:29.670Z,34.80
2019-04-21T09:42:02.449Z,33.60
2019-04-21T09:44:36.576Z,35.10
2019-04-21T09:47:05.089Z,34.80
2019-04-21T09:49:41.887Z,34.20
2019-04-21T09:52:18.577Z,33.50
2019-04-21T09:54:52.047Z,34.10
2019-04-21T09:57:27.641Z,35.20
2019-04-21T09:59:55.729Z,33.20
2019-04-21T10:02:31.183Z,32.60
2019-04-21T10:04:50.646Z,32.60
2019-04-21T10:07:27.459Z,33.60
2019-04-21T10:09:52.544Z,33.40
2019-04-21T10:12:23.517Z,32.10
2019-04-21T10:14:53.518Z,32.60
2019-04-21T10:17:37.457Z,31.00
2019-04-21T10:20:11.666Z,30.90
2019-04-21T10:22:41.887Z,31.70
2019-04-21T10:25:12.567Z,29.60
2019-04-21T10:27:43.157Z,29.80
2019-04-21T10:30:16.054Z,29.40
2019-04-21T10:32:46.254Z,28.50
2019-04-21T10:35:20.086Z,28.30
2019-04-21T10:38:02.737Z,28.60
2019-04-21T10:40:21.230Z,29.10
2019-04-21T10:42:52.267Z,29.40
2019-04-21T10:45:23.072Z,28.50
2019-04-21T10:47:54.727Z,29.20
2019-04-21T10:50:24.963Z,29.80
2019-04-21T10:53:00.701Z,29.80
2019-04-21T10:55:48.950Z,28.80
2019-04-21T10:58:06.519Z,29.60
2019-04-21T11:00:39.859Z,29.50
2019-04-21T11:03:29.102Z,29.40
2019-04-21T11:06:03.316Z,30.10
2019-04-21T11:08:37.922Z,30.10
2019-04-21T11:11:05.792Z,29.80
2019-04-21T11:13:36.921Z,28.70
2019-04-21T11:16:07.111Z,28.30
2019-04-21T11:18:37.784Z,29.00
2019-04-21T11:21:09.245Z,29.00
2019-04-21T11:23:40.484Z,28.70
2019-04-21T11:26:12.024Z,28.40
2019-04-21T11:28:43.064Z,28.40
2019-04-21T11:31:13.366Z,28.10
2019-04-21T11:33:45.090Z,28.80
2019-04-21T11:36:15.587Z,28.20
2019-04-21T11:39:06.138Z,28.50
2019-04-21T11:41:25.680Z,29.00
2019-04-21T11:43:57.099Z,28.00
2019-04-21T11:46:28.559Z,26.90
2019-04-21T11:48:59.748Z,24.20
2019-04-21T11:51:31.038Z,23.60
2019-04-21T11:54:02.170Z,25.10
2019-04-21T11:56:34.720Z,24.20
2019-04-21T11:59:05.868Z,24.80
2019-04-21T12:01:37.049Z,25.30
2019-04-21T12:04:07.610Z,23.30
2019-04-21T12:06:41.798Z,25.10
2019-04-21T12:09:10.062Z,24.30
2019-04-21T12:11:41.151Z,24.70
2019-04-21T12:14:12.068Z,27.00
2019-04-21T12:16:43.273Z,25.30
2019-04-21T12:19:14.577Z,24.50
2019-04-21T12:21:53.535Z,24.80
2019-04-21T12:24:17.387Z,23.60
2019-04-21T12:26:47.583Z,23.60
2019-04-21T12:29:18.915Z,24.30
2019-04-21T12:31:57.256Z,24.10
2019-04-21T12:34:28.035Z,24.70
2019-04-21T12:36:59.175Z,24.80
2019-04-21T12:39:30.542Z,24.50
2019-04-21T12:42:00.807Z,24.00
2019-04-21T12:44:31.661Z,24.20
2019-04-21T12:47:01.749Z,23.30
2019-04-21T12:49:31.878Z,23.20
2019-04-21T12:52:01.949Z,23.70
2019-04-21T12:54:33.359Z,23.30
2019-04-21T12:57:03.504Z,23.20
2019-04-21T12:59:34.562Z,23.70
2019-04-21T13:02:05.378Z,23.90
2019-04-21T13:04:35.826Z,24.30
2019-04-21T13:07:05.892Z,22.80
2019-04-21T13:09:37.469Z,22.60
2019-04-21T13:12:08.881Z,22.20
2019-04-21T13:14:39.900Z,21.90
2019-04-21T13:17:10.076Z,21.50
2019-04-21T13:19:41.266Z,20.70
2019-04-21T13:22:12.186Z,20.50
2019-04-21T13:24:42.276Z,21.10
2019-04-21T13:27:12.762Z,21.00
2019-04-21T13:29:44.082Z,20.80
2019-04-21T13:32:14.517Z,20.30
2019-04-21T13:34:46.046Z,20.60
2019-04-21T13:37:17.577Z,21.50
2019-04-21T13:40:14.621Z,21.80
2019-04-21T13:42:40.005Z,22.70
2019-04-21T13:45:08.222Z,23.10
2019-04-21T13:47:40.660Z,23.20
2019-04-21T13:50:11.164Z,23.40
2019-04-21T13:52:42.617Z,24.10
2019-04-21T13:55:13.916Z,24.90
2019-04-21T13:57:44.431Z,24.70
2019-04-21T14:00:15.227Z,25.40
2019-04-21T14:02:54.582Z,25.70
2019-04-21T14:05:24.763Z,25.30
2019-04-21T14:07:56.218Z,26.30
2019-04-21T14:10:26.693Z,25.50
2019-04-21T14:12:58.286Z,25.20
2019-04-21T14:15:28.517Z,26.70
2019-04-21T14:18:00.577Z,26.50
2019-04-21T14:20:31.185Z,26.90
2019-04-21T14:23:13.499Z,26.70
2019-04-21T14:25:33.274Z,26.50
2019-04-21T14:28:04.036Z,26.70
2019-04-21T14:30:34.635Z,26.80
2019-04-21T14:33:04.785Z,26.60
2019-04-21T14:35:34.931Z,27.00
2019-04-21T14:38:05.086Z,26.40
2019-04-21T14:40:37.050Z,26.70
2019-04-21T14:43:08.036Z,27.50
2019-04-21T14:45:40.796Z,27.40
2019-04-21T14:48:29.544Z,26.70
2019-04-21T14:51:07.351Z,26.70
2019-04-21T14:53:57.343Z,27.70
2019-04-21T14:56:27.515Z,27.10
2019-04-21T14:58:59.088Z,27.20
2019-04-21T15:01:29.296Z,27.50
2019-04-21T15:04:03.771Z,27.70
2019-04-21T15:06:37.110Z,27.50
2019-04-21T15:09:09.330Z,27.60
2019-04-21T15:11:40.098Z,27.40
2019-04-21T15:14:11.586Z,27.30
2019-04-21T15:16:42.812Z,27.90
2019-04-21T15:19:12.923Z,27.60
2019-04-21T15:21:42.954Z,28.20
2019-04-21T15:24:14.239Z,28.30
2019-04-21T15:26:46.405Z,27.60
2019-04-21T15:29:17.108Z,28.20
2019-04-21T15:31:48.308Z,28.30
2019-04-21T15:34:19.249Z,28.30
2019-04-21T15:36:50.345Z,28.60
2019-04-21T15:39:21.506Z,29.10
2019-04-21T15:41:52.517Z,28.70
2019-04-21T15:44:22.852Z,28.80
2019-04-21T15:46:53.392Z,29.10
2019-04-21T15:49:23.399Z,29.50
2019-04-21T15:51:53.833Z,29.10
2019-04-21T15:54:24.731Z,28.90
2019-04-21T15:57:00.627Z,29.20
2019-04-21T15:59:38.086Z,29.20
2019-04-21T16:02:26.576Z,29.50
2019-04-21T16:04:56.858Z,29.70
2019-04-21T16:07:26.972Z,29.80
2019-04-21T16:09:57.723Z,29.80
2019-04-21T16:12:27.825Z,29.80
2019-04-21T16:14:58.778Z,29.50
2019-04-21T16:17:29.604Z,29.70
2019-04-21T16:19:59.797Z,29.90
2019-04-21T16:22:32.653Z,30.20
2019-04-21T16:25:03.378Z,30.00
2019-04-21T16:27:35.045Z,30.20
2019-04-21T16:30:08.001Z,30.60
2019-04-21T16:32:38.381Z,30.20
2019-04-21T16:35:11.091Z,30.70
2019-04-21T16:37:41.580Z,30.50
2019-04-21T16:40:11.871Z,30.80
2019-04-21T16:42:42.531Z,30.50
2019-04-21T16:45:13.115Z,30.90
2019-04-21T16:47:44.159Z,31.30
2019-04-21T16:50:15.892Z,31.60
2019-04-21T16:53:03.672Z,31.30
2019-04-21T16:55:37.157Z,31.30
2019-04-21T16:58:15.274Z,31.50
2019-04-21T17:00:51.227Z,31.60
2019-04-21T17:03:14.724Z,31.70
2019-04-21T17:05:45.901Z,31.80
2019-04-21T17:08:15.855Z,31.50
2019-04-21T17:10:59.162Z,31.90
2019-04-21T17:13:18.263Z,32.30
2019-04-21T17:16:07.768Z,32.10
2019-04-21T17:18:33.364Z,32.80
2019-04-21T17:20:56.191Z,32.50
2019-04-21T17:23:25.151Z,32.60
2019-04-21T17:25:55.366Z,32.20
2019-04-21T17:28:25.739Z,32.40
2019-04-21T17:30:55.884Z,32.80
2019-04-21T17:33:28.375Z,33.10
2019-04-21T17:35:58.706Z,33.40
2019-04-21T17:38:30.064Z,33.70
2019-04-21T17:41:15.612Z,33.90
2019-04-21T17:43:35.444Z,34.20
2019-04-21T17:46:06.802Z,34.30
2019-04-21T17:48:36.936Z,34.50
2019-04-21T17:51:09.540Z,34.90
2019-04-21T17:53:47.771Z,34.80
2019-04-21T17:56:47.802Z,35.00
2019-04-21T17:59:04.432Z,35.10
2019-04-21T18:01:39.356Z,35.50
2019-04-21T18:04:10.832Z,35.90
2019-04-21T18:06:52.712Z,36.50
2019-04-21T18:09:38.573Z,36.60
2019-04-21T18:11:59.443Z,36.70
2019-04-21T18:14:13.811Z,36.60
2019-04-21T18:16:47.874Z,37.00
2019-04-21T18:19:19.351Z,37.40
2019-04-21T18:21:59.537Z,37.50
2019-04-21T18:24:40.678Z,37.90
2019-04-21T18:27:04.276Z,38.50
2019-04-21T18:29:33.961Z,39.10
2019-04-21T18:32:04.216Z,39.60
2019-04-21T18:34:43.987Z,39.60
2019-04-21T18:37:32.669Z,39.80
2019-04-21T18:40:05.320Z,40.20
2019-04-21T18:42:47.886Z,40.40
2019-04-21T18:48:07.901Z,40.60
2019-04-21T18:50:52.556Z,41.00
2019-04-21T18:53:44.878Z,41.40
2019-04-21T18:56:07.427Z,41.20
2019-04-21T18:58:36.120Z,41.00
2019-04-21T19:01:12.621Z,40.60
2019-04-21T19:03:43.087Z,41.20
2019-04-21T19:06:16.461Z,41.40
2019-04-21T19:11:28.132Z,41.40
2019-04-21T19:14:28.938Z,41.50
2019-04-21T19:16:49.848Z,41.00
2019-04-21T19:21:49.857Z,41.20
2019-04-21T19:24:45.673Z,41.30
2019-04-21T19:26:58.803Z,41.00
2019-04-21T19:31:54.910Z,41.00
2019-04-21T19:34:18.665Z,41.10
2019-04-21T19:36:51.267Z,40.70
2019-04-21T19:39:25.836Z,40.90
2019-04-21T19:41:58.579Z,41.20
2019-04-21T19:44:36.035Z,41.00
2019-04-21T19:47:10.757Z,40.90
2019-04-21T19:49:45.521Z,40.80
2019-04-21T19:52:02.944Z,40.70
2019-04-21T19:54:32.023Z,40.90
2019-04-21T19:56:55.826Z,41.30
2019-04-21T19:59:34.890Z,40.80
2019-04-21T20:01:58.300Z,40.90
2019-04-21T20:04:34.087Z,41.40
2019-04-21T20:07:10.325Z,41.20
2019-04-21T20:09:47.792Z,40.90
2019-04-21T20:12:29.851Z,41.10
2019-04-21T20:14:59.329Z,41.50
2019-04-21T20:17:17.625Z,41.70
2019-04-21T20:19:42.347Z,41.70
2019-04-21T20:22:14.725Z,41.90
2019-04-21T20:24:53.283Z,41.90
2019-04-21T20:27:24.141Z,41.90
2019-04-21T20:30:10.931Z,42.40
2019-04-21T20:32:38.276Z,42.30
2019-04-21T20:35:14.396Z,42.40
2019-04-21T20:37:41.894Z,42.20
2019-04-21T20:40:02.265Z,42.50
2019-04-21T20:42:44.102Z,42.60
2019-04-21T20:45:30.722Z,42.40
2019-04-21T20:47:37.759Z,42.70
2019-04-21T20:50:16.157Z,42.70
2019-04-21T20:52:55.211Z,42.60
2019-04-21T20:55:16.722Z,43.30
2019-04-21T20:57:51.470Z,43.40
2019-04-21T21:00:32.299Z,43.50
2019-04-21T21:03:07.076Z,43.00
2019-04-21T21:05:30.567Z,43.10
2019-04-21T21:08:13.710Z,43.10
2019-04-21T21:10:38.635Z,43.20
2019-04-21T21:13:20.568Z,43.80
2019-04-21T21:15:51.390Z,43.90
2019-04-21T21:18:26.773Z,44.40
2019-04-21T21:20:49.779Z,44.90
2019-04-21T21:23:14.461Z,45.20
2019-04-21T21:26:04.744Z,44.90
2019-04-21T21:28:24.204Z,45.80
2019-04-21T21:30:52.841Z,45.40
2019-04-21T21:33:22.538Z,45.60
2019-04-21T21:35:56.633Z,46.20
2019-04-21T21:38:30.795Z,46.10
2019-04-21T21:40:57.026Z,46.50
2019-04-21T21:43:23.075Z,46.50
2019-04-21T21:45:55.632Z,46.80
2019-04-21T21:48:39.540Z,47.00
2019-04-21T21:51:04.379Z,47.00
2019-04-21T21:53:28.617Z,47.40
2019-04-21T21:55:58.564Z,47.70
2019-04-21T21:58:36.442Z,48.10
2019-04-21T22:01:04.527Z,48.40
2019-04-21T22:03:38.926Z,48.70
2019-04-21T22:06:09.927Z,48.80
2019-04-21T22:08:36.545Z,49.00
2019-04-21T22:11:07.239Z,49.20
2019-04-21T22:13:49.098Z,49.30
2019-04-21T22:16:14.397Z,49.50
2019-04-21T22:19:04.714Z,49.80
2019-04-21T22:21:36.583Z,49.70
2019-04-21T22:23:57.072Z,49.80
2019-04-21T22:26:18.958Z,50.00
2019-04-21T22:28:49.699Z,50.10
2019-04-21T22:31:25.338Z,49.30
2019-04-21T22:33:55.729Z,49.70
2019-04-21T22:36:36.621Z,48.70
2019-04-21T22:39:15.074Z,48.60
2019-04-21T22:41:34.606Z,48.30
2019-04-21T22:43:59.375Z,48.00
2019-04-21T22:46:30.727Z,48.20
2019-04-21T22:49:06.814Z,47.70
2019-04-21T22:51:39.353Z,47.60
2019-04-21T22:54:04.228Z,47.40
2019-04-21T22:56:36.119Z,47.90
2019-04-21T22:59:10.991Z,48.20
2019-04-21T23:01:42.464Z,48.10
2019-04-21T23:04:10.673Z,48.70
2019-04-21T23:06:42.679Z,49.00
2019-04-21T23:09:13.294Z,49.30
2019-04-21T23:11:49.190Z,49.50
2019-04-21T23:14:17.535Z,49.40
2019-04-21T23:16:53.630Z,49.50
2019-04-21T23:19:32.153Z,49.60
2019-04-21T23:22:09.526Z,50.10
2019-04-21T23:24:45.511Z,50.10
2019-04-21T23:27:09.993Z,50.00
2019-04-21T23:29:57.029Z,49.90
2019-04-21T23:32:13.116Z,50.10
2019-04-21T23:34:36.088Z,50.20
2019-04-21T23:37:10.122Z,50.80
2019-04-21T23:39:37.019Z,50.50
2019-04-21T23:42:06.383Z,50.00
2019-04-21T23:44:41.813Z,50.30
2019-04-21T23:47:11.785Z,50.40
2019-04-21T23:49:51.078Z,50.90
2019-04-21T23:52:15.666Z,50.70
2019-04-21T23:54:45.267Z,50.30
2019-04-21T23:57:24.981Z,50.00
2019-04-21T23:59:51.889Z,49.50
